Wilson Lista — 8PRW — position and weather

sailwx.info

Track history (hours):
 
Tides and Currents Weather Stations Pressure Air Temp Water Temp Dewpoint Dewpoint Depression Visibility Wind Speed Wind Dir Waves Ship Positions

Wilson Lista

Last reported at 2016-Aug-15 23:19 UTC. Time now 2016-Aug-27 09:55 UTC.
Position N 55°39' E 015°29'.
Warning: this ship's position is 11 days out of date.

Length 88 m; draft 5.7 m.

Type: Cargo ship. MMSI: 314188000.

Date/timePositionNaut miles runAvg speedWind from/ knotsBaromVisibWave heightAir tempDewpointWater temp
2016-Aug-15 23:19N 55°39' E 015°29'7 9.5
2016-Aug-15 22:33N 55°36' E 015°17'10 9.7
2016-Aug-15 21:33N 55°31' E 015°02'1010.0
2016-Aug-15 20:33N 55°26' E 014°47'10 9.7
2016-Aug-15 19:33N 55°20' E 014°35'10 9.7
2016-Aug-15 18:33N 55°12' E 014°24'10 9.6
2016-Aug-15 17:33N 55°04' E 014°14'9 8.9
2016-Aug-15 16:33N 54°59' E 014°01'39 9.7
2016-Aug-15 12:30N 54°47' E 012°56'9 9.4
2016-Aug-15 11:32N 54°44' E 012°41'20 9.5
2016-Aug-15 09:28N 54°30' E 012°16'9 8.7
2016-Aug-15 08:23N 54°25' E 012°03'810.0
2016-Aug-15 07:33N 54°25' E 011°49'10 9.9
2016-Aug-15 06:33N 54°28' E 011°33'2010.0
2016-Aug-15 04:33N 54°35' E 011°01'1010.2
2016-Aug-15 03:33N 54°34' E 010°43'11 9.6
2016-Aug-15 02:26N 54°31' E 010°25'8 9.1
2016-Aug-15 01:33N 54°26' E 010°14'5 5.4
2016-Aug-15 00:33N 54°22' E 010°08'6 6.2
2016-Aug-14 23:33N 54°21' E 009°58'27 6.4
2016-Aug-14 19:21N 54°06' E 009°20'7 8.6
2016-Aug-14 18:33N 53°59' E 009°17'7 7.2
2016-Aug-14 17:33N 53°54' E 009°09'2 1.5
2016-Aug-14 16:33N 53°53' E 009°06'5 5.5
2016-Aug-14 15:33N 53°51' E 008°58'7 6.9
2016-Aug-14 14:33N 53°51' E 008°46'7 6.4
2016-Aug-14 13:31N 53°56' E 008°39'8 7.3
2016-Aug-14 12:27N 53°59' E 008°27'7 8.4
2016-Aug-14 11:33N 53°59' E 008°14'9 8.6
2016-Aug-14 10:31N 53°58' E 007°59'19 9.4
2016-Aug-14 08:33N 53°54' E 007°29'10 9.8
2016-Aug-14 07:33N 53°51' E 007°13'1010.0
2016-Aug-14 06:33N 53°49' E 006°56'2110.4
2016-Aug-14 04:32N 53°44' E 006°22'1010.6
2016-Aug-14 03:33N 53°41' E 006°05'1110.7
2016-Aug-14 02:33N 53°38' E 005°48'1110.7
2016-Aug-14 01:33N 53°34' E 005°31'1110.6
2016-Aug-14 00:33N 53°31' E 005°14'55 9.1
2016-Aug-13 18:33N 52°51' E 004°13'8 8.5
2016-Aug-13 17:33N 52°43' E 004°06'9 8.5
2016-Aug-13 16:31N 52°35' E 003°59'19 8.6
2016-Aug-13 14:22N 52°17' E 003°53'7 9.1
2016-Aug-13 13:33N 52°10' E 003°55'9 9.2
2016-Aug-13 12:33N 52°01' E 003°59'10 9.6
2016-Aug-13 11:34N 51°56' E 004°12'8 8.1
2016-Aug-13 10:33N 51°54' E 004°25'0 0.2
2016-Aug-13 09:33N 51°54' E 004°25'0 0.0
2016-Aug-13 08:33N 51°54' E 004°25'0 0.0
2016-Aug-13 07:33N 51°54' E 004°25'0 0.0
2016-Aug-13 06:33N 51°54' E 004°25'0 0.0
2016-Aug-13 05:32N 51°54' E 004°25'0 0.0
2016-Aug-13 04:31N 51°54' E 004°25'0 0.0
2016-Aug-13 03:31N 51°54' E 004°25'0 0.0
2016-Aug-13 02:28N 51°54' E 004°25'0 0.0
2016-Aug-13 01:33N 51°54' E 004°25'0 0.0
2016-Aug-13 00:33N 51°54' E 004°25'0 0.0
2016-Aug-12 23:32N 51°54' E 004°25'0 0.0
2016-Aug-12 22:32N 51°54' E 004°25'0 0.0
2016-Aug-12 20:32N 51°54' E 004°25'0 0.0
2016-Aug-12 19:31N 51°54' E 004°25'0 0.0
2016-Aug-12 18:27N 51°54' E 004°25'0 0.1
2016-Aug-12 17:34N 51°54' E 004°25'2 1.7
2016-Aug-12 16:28N 51°54' E 004°28'0 0.0
2016-Aug-12 15:30N 51°54' E 004°28'0 0.0
2016-Aug-12 14:33N 51°54' E 004°28'0 0.0
2016-Aug-12 13:33N 51°54' E 004°28'0 0.0
2016-Aug-12 12:32N 51°54' E 004°28'0 0.0
2016-Aug-12 11:32N 51°54' E 004°28'0 0.0
2016-Aug-12 10:31N 51°54' E 004°28'0 0.0
2016-Aug-12 09:32N 51°54' E 004°28'0 0.0
2016-Aug-12 08:33N 51°54' E 004°28'0 0.0
2016-Aug-12 07:33N 51°54' E 004°28'0 0.0
2016-Aug-12 06:32N 51°54' E 004°28'0 0.0
2016-Aug-12 05:32N 51°54' E 004°28'0 0.0
2016-Aug-12 04:32N 51°54' E 004°28'0 0.0
2016-Aug-12 03:32N 51°54' E 004°28'0 0.0
2016-Aug-12 02:31N 51°54' E 004°28'0 0.0
2016-Aug-12 01:33N 51°54' E 004°28'0 0.0
2016-Aug-12 00:33N 51°54' E 004°28'0 0.0
2016-Aug-11 23:32N 51°54' E 004°28'0 0.0
2016-Aug-11 22:32N 51°54' E 004°28'0 0.0
2016-Aug-11 21:26N 51°54' E 004°28'0 0.0
2016-Aug-11 20:31N 51°54' E 004°28'0 0.0
2016-Aug-11 19:33N 51°54' E 004°28'0 0.0
2016-Aug-11 18:33N 51°54' E 004°28'0 0.0
2016-Aug-11 17:29N 51°54' E 004°28'0 0.0
2016-Aug-11 16:31N 51°54' E 004°28'0 0.0
2016-Aug-11 15:31N 51°54' E 004°28'0 0.0
2016-Aug-11 14:31N 51°54' E 004°28'0 0.0
2016-Aug-11 13:33N 51°54' E 004°28'0 0.0
2016-Aug-11 12:33N 51°54' E 004°28'0 0.0
2016-Aug-11 11:33N 51°54' E 004°28'0 0.0
2016-Aug-11 10:32N 51°54' E 004°28'0 0.0
2016-Aug-11 09:31N 51°54' E 004°28'0 0.0
2016-Aug-11 08:31N 51°54' E 004°28'0 0.0
2016-Aug-11 07:31N 51°54' E 004°28'0 0.0
2016-Aug-11 06:33N 51°54' E 004°28'0 0.0
2016-Aug-11 05:33N 51°54' E 004°28'0 0.0
2016-Aug-11 04:33N 51°54' E 004°28'0 0.0
2016-Aug-11 03:32N 51°54' E 004°28'0 0.0
2016-Aug-11 02:31N 51°54' E 004°28'0 0.0
2016-Aug-11 01:32N 51°54' E 004°28'0 0.1
2016-Aug-11 00:33N 51°54' E 004°28'7 6.7
2016-Aug-10 23:33N 51°54' E 004°17'8 7.7
2016-Aug-10 22:33N 51°58' E 004°07'10 9.6
2016-Aug-10 21:33N 52°01' E 003°52'31 7.7
2016-Aug-10 17:33N 52°31' E 004°01'9 8.6
2016-Aug-10 16:33N 52°31' E 004°15'9 8.7
2016-Aug-10 15:33N 52°29' E 004°29'5 5.0
2016-Aug-10 14:33N 52°28' E 004°37'0 0.3
2016-Aug-10 13:31N 52°28' E 004°38'0 0.0
2016-Aug-10 12:31N 52°28' E 004°38'0 0.0
2016-Aug-10 11:33N 52°28' E 004°38'0 0.0
2016-Aug-10 10:33N 52°28' E 004°38'0 0.0
2016-Aug-10 09:33N 52°28' E 004°38'0 0.0
2016-Aug-10 08:33N 52°28' E 004°38'0 0.0
2016-Aug-10 07:33N 52°28' E 004°38'0 0.0
2016-Aug-10 06:33N 52°28' E 004°38'0 0.0
2016-Aug-10 05:33N 52°28' E 004°38'0 0.0
2016-Aug-10 04:33N 52°28' E 004°38'0 0.0
2016-Aug-10 03:33N 52°28' E 004°38'0 0.0
2016-Aug-10 02:33N 52°28' E 004°38'0 0.0
2016-Aug-10 01:33N 52°28' E 004°38'0 0.0
2016-Aug-10 00:33N 52°28' E 004°38'0 0.0
2016-Aug-09 23:33N 52°28' E 004°38'0 0.0
2016-Aug-09 22:28N 52°28' E 004°38'0 0.0
2016-Aug-09 21:33N 52°28' E 004°38'0 0.0
2016-Aug-09 20:33N 52°28' E 004°38'0 0.0
2016-Aug-09 19:33N 52°28' E 004°38'0 0.0
2016-Aug-09 18:29N 52°28' E 004°38'0 0.0
2016-Aug-09 17:32N 52°28' E 004°38'0 0.0
2016-Aug-09 16:31N 52°28' E 004°38'0 0.0
2016-Aug-09 15:31N 52°28' E 004°38'0 0.0
2016-Aug-09 14:31N 52°28' E 004°38'0 0.0
2016-Aug-09 13:16N 52°28' E 004°38'0 0.0
2016-Aug-09 12:15N 52°28' E 004°38'0 0.0
2016-Aug-09 09:15N 52°28' E 004°38'0 0.0
2016-Aug-09 08:11N 52°28' E 004°38'0 0.0
2016-Aug-09 07:32N 52°28' E 004°38'0 0.0
2016-Aug-09 05:33N 52°28' E 004°38'0 0.0
2016-Aug-09 04:33N 52°28' E 004°38'0 0.0
2016-Aug-09 03:09N 52°28' E 004°38'0 0.0
2016-Aug-09 02:28N 52°28' E 004°38'0 0.0
2016-Aug-09 01:33N 52°28' E 004°38'0 0.0
2016-Aug-09 00:05N 52°28' E 004°38'0 0.0
2016-Aug-08 23:29N 52°28' E 004°38'0 0.0
2016-Aug-08 22:19N 52°28' E 004°38'0 0.0
2016-Aug-08 21:10N 52°28' E 004°38'0 0.0
2016-Aug-08 19:33N 52°28' E 004°38'0 0.0
2016-Aug-08 18:09N 52°28' E 004°38'0 0.0
2016-Aug-08 17:14N 52°28' E 004°38'0 0.0
2016-Aug-08 16:32N 52°28' E 004°38'0 0.0
2016-Aug-08 15:19N 52°28' E 004°38'0 0.0
2016-Aug-08 14:31N 52°28' E 004°38'0 0.0
2016-Aug-08 13:32N 52°28' E 004°38'0 0.0
2016-Aug-08 12:32N 52°28' E 004°38'0 0.0
2016-Aug-08 11:31N 52°28' E 004°38'1 0.9
2016-Aug-08 10:33N 52°28' E 004°36'3 3.3
2016-Aug-08 09:33N 52°28' E 004°31'7 7.3
2016-Aug-08 08:33N 52°28' E 004°19'8 8.3
2016-Aug-08 07:32N 52°28' E 004°05'84 7.7
2016-Aug-07 20:33N 51°34' E 002°21'7 6.9
2016-Aug-07 19:34N 51°29' E 002°14'8 7.6
2016-Aug-07 18:33N 51°22' E 002°09'9 9.2
2016-Aug-07 17:34N 51°13' E 002°03'1010.2
2016-Aug-07 16:33N 51°08' E 001°49'1111.1
2016-Aug-07 15:34N 50°60' E 001°37'81 9.9
2016-Aug-07 07:25N 50°18' W 000°11'8 8.6
2016-Aug-07 06:29N 50°16' W 000°24'17 7.8
2016-Aug-07 04:16N 50°12' W 000°50'6 7.7
2016-Aug-07 03:30N 50°10' W 000°59'8 8.4
2016-Aug-07 02:33N 50°08' W 001°11'10 9.7
2016-Aug-07 01:33N 50°05' W 001°25'1111.2
2016-Aug-07 00:33N 50°02' W 001°42'1212.5
2016-Aug-06 23:33N 49°59' W 002°01'1313.1
2016-Aug-06 22:33N 49°56' W 002°21'1312.8
2016-Aug-06 21:33N 49°53' W 002°40'1212.0
2016-Aug-06 20:33N 49°50' W 002°58'1211.5
2016-Aug-06 19:32N 49°51' W 003°16'1311.0
2016-Aug-06 18:19N 49°51' W 003°37'87 6.2
2016-Aug-06 04:20N 50°34' W 005°36'7 9.3
2016-Aug-06 03:33N 50°39' W 005°27'10 9.9
2016-Aug-06 02:33N 50°46' W 005°15'1010.5
2016-Aug-06 01:33N 50°53' W 005°03'1110.7
2016-Aug-06 00:33N 50°60' W 004°50'  
Track history (hours):
 
Tides and Currents Weather Stations Pressure Air Temp Water Temp Dewpoint Dewpoint Depression Visibility Wind Speed Wind Dir Waves Ship Positions

Wilson Lista

Last reported at 2016-Aug-15 23:19 UTC. Time now 2016-Aug-27 09:55 UTC.
Position N 55°39' E 015°29'.
Warning: this ship's position is 11 days out of date.

Length 88 m; draft 5.7 m.

Type: Cargo ship. MMSI: 314188000.

Date/timePositionNaut miles runAvg speedWind from/ knotsBaromVisibWave heightAir tempDewpointWater temp
2016-Aug-15 23:19N 55°39' E 015°29'7 9.5
2016-Aug-15 22:33N 55°36' E 015°17'10 9.7
2016-Aug-15 21:33N 55°31' E 015°02'1010.0
2016-Aug-15 20:33N 55°26' E 014°47'10 9.7
2016-Aug-15 19:33N 55°20' E 014°35'10 9.7
2016-Aug-15 18:33N 55°12' E 014°24'10 9.6
2016-Aug-15 17:33N 55°04' E 014°14'9 8.9
2016-Aug-15 16:33N 54°59' E 014°01'39 9.7
2016-Aug-15 12:30N 54°47' E 012°56'9 9.4
2016-Aug-15 11:32N 54°44' E 012°41'20 9.5
2016-Aug-15 09:28N 54°30' E 012°16'9 8.7
2016-Aug-15 08:23N 54°25' E 012°03'810.0
2016-Aug-15 07:33N 54°25' E 011°49'10 9.9
2016-Aug-15 06:33N 54°28' E 011°33'2010.0
2016-Aug-15 04:33N 54°35' E 011°01'1010.2
2016-Aug-15 03:33N 54°34' E 010°43'11 9.6
2016-Aug-15 02:26N 54°31' E 010°25'8 9.1
2016-Aug-15 01:33N 54°26' E 010°14'5 5.4
2016-Aug-15 00:33N 54°22' E 010°08'6 6.2
2016-Aug-14 23:33N 54°21' E 009°58'27 6.4
2016-Aug-14 19:21N 54°06' E 009°20'7 8.6
2016-Aug-14 18:33N 53°59' E 009°17'7 7.2
2016-Aug-14 17:33N 53°54' E 009°09'2 1.5
2016-Aug-14 16:33N 53°53' E 009°06'5 5.5
2016-Aug-14 15:33N 53°51' E 008°58'7 6.9
2016-Aug-14 14:33N 53°51' E 008°46'7 6.4
2016-Aug-14 13:31N 53°56' E 008°39'8 7.3
2016-Aug-14 12:27N 53°59' E 008°27'7 8.4
2016-Aug-14 11:33N 53°59' E 008°14'9 8.6
2016-Aug-14 10:31N 53°58' E 007°59'19 9.4
2016-Aug-14 08:33N 53°54' E 007°29'10 9.8
2016-Aug-14 07:33N 53°51' E 007°13'1010.0
2016-Aug-14 06:33N 53°49' E 006°56'2110.4
2016-Aug-14 04:32N 53°44' E 006°22'1010.6
2016-Aug-14 03:33N 53°41' E 006°05'1110.7
2016-Aug-14 02:33N 53°38' E 005°48'1110.7
2016-Aug-14 01:33N 53°34' E 005°31'1110.6
2016-Aug-14 00:33N 53°31' E 005°14'55 9.1
2016-Aug-13 18:33N 52°51' E 004°13'8 8.5
2016-Aug-13 17:33N 52°43' E 004°06'9 8.5
2016-Aug-13 16:31N 52°35' E 003°59'19 8.6
2016-Aug-13 14:22N 52°17' E 003°53'7 9.1
2016-Aug-13 13:33N 52°10' E 003°55'9 9.2
2016-Aug-13 12:33N 52°01' E 003°59'10 9.6
2016-Aug-13 11:34N 51°56' E 004°12'8 8.1
2016-Aug-13 10:33N 51°54' E 004°25'0 0.2
2016-Aug-13 09:33N 51°54' E 004°25'0 0.0
2016-Aug-13 08:33N 51°54' E 004°25'0 0.0
2016-Aug-13 07:33N 51°54' E 004°25'0 0.0
2016-Aug-13 06:33N 51°54' E 004°25'0 0.0
2016-Aug-13 05:32N 51°54' E 004°25'0 0.0
2016-Aug-13 04:31N 51°54' E 004°25'0 0.0
2016-Aug-13 03:31N 51°54' E 004°25'0 0.0
2016-Aug-13 02:28N 51°54' E 004°25'0 0.0
2016-Aug-13 01:33N 51°54' E 004°25'0 0.0
2016-Aug-13 00:33N 51°54' E 004°25'0 0.0
2016-Aug-12 23:32N 51°54' E 004°25'0 0.0
2016-Aug-12 22:32N 51°54' E 004°25'0 0.0
2016-Aug-12 20:32N 51°54' E 004°25'0 0.0
2016-Aug-12 19:31N 51°54' E 004°25'0 0.0
2016-Aug-12 18:27N 51°54' E 004°25'0 0.1
2016-Aug-12 17:34N 51°54' E 004°25'2 1.7
2016-Aug-12 16:28N 51°54' E 004°28'0 0.0
2016-Aug-12 15:30N 51°54' E 004°28'0 0.0
2016-Aug-12 14:33N 51°54' E 004°28'0 0.0
2016-Aug-12 13:33N 51°54' E 004°28'0 0.0
2016-Aug-12 12:32N 51°54' E 004°28'0 0.0
2016-Aug-12 11:32N 51°54' E 004°28'0 0.0
2016-Aug-12 10:31N 51°54' E 004°28'0 0.0
2016-Aug-12 09:32N 51°54' E 004°28'0 0.0
2016-Aug-12 08:33N 51°54' E 004°28'0 0.0
2016-Aug-12 07:33N 51°54' E 004°28'0 0.0
2016-Aug-12 06:32N 51°54' E 004°28'0 0.0
2016-Aug-12 05:32N 51°54' E 004°28'0 0.0
2016-Aug-12 04:32N 51°54' E 004°28'0 0.0
2016-Aug-12 03:32N 51°54' E 004°28'0 0.0
2016-Aug-12 02:31N 51°54' E 004°28'0 0.0
2016-Aug-12 01:33N 51°54' E 004°28'0 0.0
2016-Aug-12 00:33N 51°54' E 004°28'0 0.0
2016-Aug-11 23:32N 51°54' E 004°28'0 0.0
2016-Aug-11 22:32N 51°54' E 004°28'0 0.0
2016-Aug-11 21:26N 51°54' E 004°28'0 0.0
2016-Aug-11 20:31N 51°54' E 004°28'0 0.0
2016-Aug-11 19:33N 51°54' E 004°28'0 0.0
2016-Aug-11 18:33N 51°54' E 004°28'0 0.0
2016-Aug-11 17:29N 51°54' E 004°28'0 0.0
2016-Aug-11 16:31N 51°54' E 004°28'0 0.0
2016-Aug-11 15:31N 51°54' E 004°28'0 0.0
2016-Aug-11 14:31N 51°54' E 004°28'0 0.0
2016-Aug-11 13:33N 51°54' E 004°28'0 0.0
2016-Aug-11 12:33N 51°54' E 004°28'0 0.0
2016-Aug-11 11:33N 51°54' E 004°28'0 0.0
2016-Aug-11 10:32N 51°54' E 004°28'0 0.0
2016-Aug-11 09:31N 51°54' E 004°28'0 0.0
2016-Aug-11 08:31N 51°54' E 004°28'0 0.0
2016-Aug-11 07:31N 51°54' E 004°28'0 0.0
2016-Aug-11 06:33N 51°54' E 004°28'0 0.0
2016-Aug-11 05:33N 51°54' E 004°28'0 0.0
2016-Aug-11 04:33N 51°54' E 004°28'0 0.0
2016-Aug-11 03:32N 51°54' E 004°28'0 0.0
2016-Aug-11 02:31N 51°54' E 004°28'0 0.0
2016-Aug-11 01:32N 51°54' E 004°28'0 0.1
2016-Aug-11 00:33N 51°54' E 004°28'7 6.7
2016-Aug-10 23:33N 51°54' E 004°17'8 7.7
2016-Aug-10 22:33N 51°58' E 004°07'10 9.6
2016-Aug-10 21:33N 52°01' E 003°52'31 7.7
2016-Aug-10 17:33N 52°31' E 004°01'9 8.6
2016-Aug-10 16:33N 52°31' E 004°15'9 8.7
2016-Aug-10 15:33N 52°29' E 004°29'5 5.0
2016-Aug-10 14:33N 52°28' E 004°37'0 0.3
2016-Aug-10 13:31N 52°28' E 004°38'0 0.0
2016-Aug-10 12:31N 52°28' E 004°38'0 0.0
2016-Aug-10 11:33N 52°28' E 004°38'0 0.0
2016-Aug-10 10:33N 52°28' E 004°38'0 0.0
2016-Aug-10 09:33N 52°28' E 004°38'0 0.0
2016-Aug-10 08:33N 52°28' E 004°38'0 0.0
2016-Aug-10 07:33N 52°28' E 004°38'0 0.0
2016-Aug-10 06:33N 52°28' E 004°38'0 0.0
2016-Aug-10 05:33N 52°28' E 004°38'0 0.0
2016-Aug-10 04:33N 52°28' E 004°38'0 0.0
2016-Aug-10 03:33N 52°28' E 004°38'0 0.0
2016-Aug-10 02:33N 52°28' E 004°38'0 0.0
2016-Aug-10 01:33N 52°28' E 004°38'0 0.0
2016-Aug-10 00:33N 52°28' E 004°38'0 0.0
2016-Aug-09 23:33N 52°28' E 004°38'0 0.0
2016-Aug-09 22:28N 52°28' E 004°38'0 0.0
2016-Aug-09 21:33N 52°28' E 004°38'0 0.0
2016-Aug-09 20:33N 52°28' E 004°38'0 0.0
2016-Aug-09 19:33N 52°28' E 004°38'0 0.0
2016-Aug-09 18:29N 52°28' E 004°38'0 0.0
2016-Aug-09 17:32N 52°28' E 004°38'0 0.0
2016-Aug-09 16:31N 52°28' E 004°38'0 0.0
2016-Aug-09 15:31N 52°28' E 004°38'0 0.0
2016-Aug-09 14:31N 52°28' E 004°38'0 0.0
2016-Aug-09 13:16N 52°28' E 004°38'0 0.0
2016-Aug-09 12:15N 52°28' E 004°38'0 0.0
2016-Aug-09 09:15N 52°28' E 004°38'0 0.0
2016-Aug-09 08:11N 52°28' E 004°38'0 0.0
2016-Aug-09 07:32N 52°28' E 004°38'0 0.0
2016-Aug-09 05:33N 52°28' E 004°38'0 0.0
2016-Aug-09 04:33N 52°28' E 004°38'0 0.0
2016-Aug-09 03:09N 52°28' E 004°38'0 0.0
2016-Aug-09 02:28N 52°28' E 004°38'0 0.0
2016-Aug-09 01:33N 52°28' E 004°38'0 0.0
2016-Aug-09 00:05N 52°28' E 004°38'0 0.0
2016-Aug-08 23:29N 52°28' E 004°38'0 0.0
2016-Aug-08 22:19N 52°28' E 004°38'0 0.0
2016-Aug-08 21:10N 52°28' E 004°38'0 0.0
2016-Aug-08 19:33N 52°28' E 004°38'0 0.0
2016-Aug-08 18:09N 52°28' E 004°38'0 0.0
2016-Aug-08 17:14N 52°28' E 004°38'0 0.0
2016-Aug-08 16:32N 52°28' E 004°38'0 0.0
2016-Aug-08 15:19N 52°28' E 004°38'0 0.0
2016-Aug-08 14:31N 52°28' E 004°38'0 0.0
2016-Aug-08 13:32N 52°28' E 004°38'0 0.0
2016-Aug-08 12:32N 52°28' E 004°38'0 0.0
2016-Aug-08 11:31N 52°28' E 004°38'1 0.9
2016-Aug-08 10:33N 52°28' E 004°36'3 3.3
2016-Aug-08 09:33N 52°28' E 004°31'7 7.3
2016-Aug-08 08:33N 52°28' E 004°19'8 8.3
2016-Aug-08 07:32N 52°28' E 004°05'84 7.7
2016-Aug-07 20:33N 51°34' E 002°21'7 6.9
2016-Aug-07 19:34N 51°29' E 002°14'8 7.6
2016-Aug-07 18:33N 51°22' E 002°09'9 9.2
2016-Aug-07 17:34N 51°13' E 002°03'1010.2
2016-Aug-07 16:33N 51°08' E 001°49'1111.1
2016-Aug-07 15:34N 50°60' E 001°37'81 9.9
2016-Aug-07 07:25N 50°18' W 000°11'8 8.6
2016-Aug-07 06:29N 50°16' W 000°24'17 7.8
2016-Aug-07 04:16N 50°12' W 000°50'6 7.7
2016-Aug-07 03:30N 50°10' W 000°59'8 8.4
2016-Aug-07 02:33N 50°08' W 001°11'10 9.7
2016-Aug-07 01:33N 50°05' W 001°25'1111.2
2016-Aug-07 00:33N 50°02' W 001°42'1212.5
2016-Aug-06 23:33N 49°59' W 002°01'1313.1
2016-Aug-06 22:33N 49°56' W 002°21'1312.8
2016-Aug-06 21:33N 49°53' W 002°40'1212.0
2016-Aug-06 20:33N 49°50' W 002°58'1211.5
2016-Aug-06 19:32N 49°51' W 003°16'1311.0
2016-Aug-06 18:19N 49°51' W 003°37'87 6.2
2016-Aug-06 04:20N 50°34' W 005°36'7 9.3
2016-Aug-06 03:33N 50°39' W 005°27'10 9.9
2016-Aug-06 02:33N 50°46' W 005°15'1010.5
2016-Aug-06 01:33N 50°53' W 005°03'1110.7
2016-Aug-06 00:33N 50°60' W 004°50'  

Dump ship's entire track history